createdAt,value
2019-03-28T00:02:05.132Z,98173.78
2019-03-28T00:04:37.639Z,98170.42
2019-03-28T00:07:10.454Z,98172.80
2019-03-28T00:09:43.018Z,98170.25
2019-03-28T00:12:15.493Z,98169.95
2019-03-28T00:14:47.992Z,98168.30
2019-03-28T00:17:20.468Z,98164.01
2019-03-28T00:19:53.591Z,98158.64
2019-03-28T00:22:35.492Z,98161.83
2019-03-28T00:25:11.588Z,98154.73
2019-03-28T00:27:44.066Z,98158.92
2019-03-28T00:30:19.245Z,98157.58
2019-03-28T00:32:52.384Z,98152.60
2019-03-28T00:35:25.055Z,98157.80
2019-03-28T00:37:57.863Z,98158.58
2019-03-28T00:40:30.653Z,98165.67
2019-03-28T00:43:03.134Z,98163.30
2019-03-28T00:45:35.662Z,98159.88
2019-03-28T00:48:08.231Z,98156.03
2019-03-28T00:50:40.687Z,98153.75
2019-03-28T00:53:13.170Z,98156.41
2019-03-28T00:55:45.760Z,98162.44
2019-03-28T00:58:18.243Z,98154.97
2019-03-28T01:00:50.795Z,98156.95
2019-03-28T01:03:23.378Z,98156.27
2019-03-28T01:05:56.168Z,98157.49
2019-03-28T01:08:28.911Z,98156.94
2019-03-28T01:11:01.390Z,98157.95
2019-03-28T01:13:33.957Z,98157.33
2019-03-28T01:16:06.462Z,98160.16
2019-03-28T01:18:39.199Z,98155.83
2019-03-28T01:21:11.733Z,98150.00
2019-03-28T01:23:44.218Z,98148.40
2019-03-28T01:26:16.684Z,98145.80
2019-03-28T01:28:49.445Z,98147.84
2019-03-28T01:31:21.912Z,98154.51
2019-03-28T01:33:54.397Z,98156.34
2019-03-28T01:36:26.859Z,98148.60
2019-03-28T01:38:59.334Z,98149.14
2019-03-28T01:41:31.799Z,98146.34
2019-03-28T01:44:04.290Z,98145.24
2019-03-28T01:46:37.043Z,98140.52
2019-03-28T01:49:10.178Z,98141.13
2019-03-28T01:51:43.017Z,98141.37
2019-03-28T01:54:15.506Z,98140.30
2019-03-28T01:56:47.993Z,98138.76
2019-03-28T01:59:21.223Z,98133.19
2019-03-28T02:01:53.825Z,98137.41
2019-03-28T02:04:26.728Z,98144.90
2019-03-28T02:06:59.536Z,98140.67
2019-03-28T02:09:32.403Z,98146.63
2019-03-28T02:12:05.421Z,98146.56
2019-03-28T02:14:38.366Z,98151.38
2019-03-28T02:17:11.093Z,98142.20
2019-03-28T02:19:43.828Z,98136.77
2019-03-28T02:22:16.301Z,98140.22
2019-03-28T02:24:49.179Z,98138.77
2019-03-28T02:27:24.374Z,98132.12
2019-03-28T02:29:56.165Z,98137.47
2019-03-28T02:32:28.902Z,98132.42
2019-03-28T02:35:01.386Z,98136.88
2019-03-28T02:37:33.880Z,98136.23
2019-03-28T02:40:07.342Z,98134.19
2019-03-28T02:42:40.220Z,98137.70
2019-03-28T02:45:12.875Z,98134.55
2019-03-28T02:47:45.363Z,98131.14
2019-03-28T02:50:17.841Z,98131.03
2019-03-28T02:52:50.317Z,98135.84
2019-03-28T02:55:23.705Z,98137.02
2019-03-28T02:57:56.266Z,98144.13
2019-03-28T03:00:29.120Z,98143.89
2019-03-28T03:03:01.600Z,98137.47
2019-03-28T03:05:34.174Z,98134.41
2019-03-28T03:08:07.895Z,98138.53
2019-03-28T03:10:40.537Z,98136.88
2019-03-28T03:13:13.319Z,98141.30
2019-03-28T03:15:45.828Z,98141.98
2019-03-28T03:18:21.401Z,98146.86
2019-03-28T03:20:52.571Z,98140.73
2019-03-28T03:23:25.184Z,98142.04
2019-03-28T03:25:57.676Z,98146.39
2019-03-28T03:28:30.155Z,98144.70
2019-03-28T03:31:02.757Z,98141.75
2019-03-28T03:33:37.064Z,98137.46
2019-03-28T03:36:09.509Z,98137.92
2019-03-28T03:38:41.986Z,98139.35
2019-03-28T03:41:14.490Z,98140.99
2019-03-28T03:43:47.423Z,98146.48
2019-03-28T03:46:20.072Z,98142.97
2019-03-28T03:48:52.564Z,98140.22
2019-03-28T03:51:25.077Z,98135.32
2019-03-28T03:53:57.629Z,98137.62
2019-03-28T03:56:30.612Z,98134.25
2019-03-28T03:59:03.247Z,98138.53
2019-03-28T04:01:35.895Z,98133.87
2019-03-28T04:04:08.596Z,98133.02
2019-03-28T04:06:41.539Z,98139.91
2019-03-28T04:09:14.605Z,98136.92
2019-03-28T04:11:47.269Z,98135.28
2019-03-28T04:14:19.807Z,98142.39
2019-03-28T04:16:52.467Z,98144.66
2019-03-28T04:19:25.028Z,98139.77
2019-03-28T04:21:58.042Z,98145.28
2019-03-28T04:24:30.688Z,98144.95
2019-03-28T04:27:03.243Z,98144.95
2019-03-28T04:29:35.778Z,98148.95
2019-03-28T04:32:08.339Z,98149.56
2019-03-28T04:34:40.888Z,98142.09
2019-03-28T04:37:13.816Z,98137.36
2019-03-28T04:39:46.416Z,98134.53
2019-03-28T04:42:18.989Z,98135.57
2019-03-28T04:44:51.934Z,98138.72
2019-03-28T04:47:24.904Z,98147.03
2019-03-28T04:49:57.565Z,98146.16
2019-03-28T04:52:31.992Z,98159.98
2019-03-28T04:55:05.222Z,98156.99
2019-03-28T04:57:41.064Z,98153.16
2019-03-28T05:00:13.755Z,98153.67
2019-03-28T05:02:46.419Z,98159.55
2019-03-28T05:05:19.110Z,98164.91
2019-03-28T05:07:52.020Z,98174.28
2019-03-28T05:10:24.755Z,98174.95
2019-03-28T05:12:57.318Z,98172.59
2019-03-28T05:15:30.096Z,98176.12
2019-03-28T05:18:02.720Z,98175.19
2019-03-28T05:20:35.618Z,98177.22
2019-03-28T05:23:08.272Z,98177.31
2019-03-28T05:25:41.045Z,98179.64
2019-03-28T05:28:13.848Z,98181.59
2019-03-28T05:30:46.449Z,98179.91
2019-03-28T05:33:19.099Z,98182.28
2019-03-28T05:35:52.293Z,98175.39
2019-03-28T05:38:26.035Z,98179.00
2019-03-28T05:40:58.660Z,98185.94
2019-03-28T05:43:31.310Z,98184.98
2019-03-28T05:46:03.850Z,98190.92
2019-03-28T05:48:36.483Z,98198.25
2019-03-28T05:51:09.176Z,98203.95
2019-03-28T05:53:43.999Z,98207.34
2019-03-28T05:56:17.224Z,98206.77
2019-03-28T05:58:50.159Z,98200.80
2019-03-28T06:01:23.402Z,98206.55
2019-03-28T06:03:56.358Z,98209.81
2019-03-28T06:06:28.996Z,98206.33
2019-03-28T06:09:01.614Z,98205.69
2019-03-28T06:11:34.706Z,98206.31
2019-03-28T06:14:07.402Z,98204.39
2019-03-28T06:16:40.033Z,98203.55
2019-03-28T06:19:12.746Z,98201.05
2019-03-28T06:21:45.286Z,98195.50
2019-03-28T06:24:18.179Z,98199.69
2019-03-28T06:26:50.883Z,98197.48
2019-03-28T06:29:24.491Z,98203.78
2019-03-28T06:31:57.819Z,98201.05
2019-03-28T06:34:31.597Z,98201.89
2019-03-28T06:37:04.227Z,98194.96
2019-03-28T06:39:36.845Z,98202.39
2019-03-28T06:42:09.516Z,98204.75
2019-03-28T06:44:42.060Z,98200.53
2019-03-28T06:47:14.754Z,98204.28
2019-03-28T06:49:47.314Z,98199.63
2019-03-28T06:52:19.951Z,98196.71
2019-03-28T06:54:52.896Z,98197.50
2019-03-28T06:57:25.513Z,98199.18
2019-03-28T06:59:58.186Z,98199.71
2019-03-28T07:02:30.915Z,98196.97
2019-03-28T07:05:03.531Z,98195.50
2019-03-28T07:07:36.496Z,98201.23
2019-03-28T07:10:10.606Z,98198.06
2019-03-28T07:12:44.292Z,98196.52
2019-03-28T07:15:18.009Z,98195.88
2019-03-28T07:17:50.796Z,98202.83
2019-03-28T07:20:23.807Z,98198.22
2019-03-28T07:22:56.504Z,98200.14
2019-03-28T07:25:29.136Z,98197.41
2019-03-28T07:28:01.674Z,98194.48
2019-03-28T07:30:34.304Z,98204.41
2019-03-28T07:33:07.039Z,98197.62
2019-03-28T07:35:39.669Z,98201.73
2019-03-28T07:38:12.707Z,98197.52
2019-03-28T07:40:45.427Z,98196.03
2019-03-28T07:43:18.217Z,98186.14
2019-03-28T07:45:50.864Z,98186.00
2019-03-28T07:48:23.401Z,98184.19
2019-03-28T07:50:56.044Z,98187.32
2019-03-28T07:53:28.995Z,98180.52
2019-03-28T07:56:01.732Z,98179.80
2019-03-28T07:58:35.300Z,98183.91
2019-03-28T08:01:09.196Z,98181.31
2019-03-28T08:03:41.810Z,98175.80
2019-03-28T08:06:14.436Z,98171.71
2019-03-28T08:08:47.175Z,98176.00
2019-03-28T08:11:19.843Z,98170.64
2019-03-28T08:13:52.451Z,98172.87
2019-03-28T08:16:28.603Z,98174.84
2019-03-28T08:18:59.501Z,98169.48
2019-03-28T08:21:32.137Z,98177.50
2019-03-28T08:24:05.319Z,98170.20
2019-03-28T08:26:38.048Z,98165.20
2019-03-28T08:29:10.658Z,98168.70
2019-03-28T08:31:45.795Z,98168.89
2019-03-28T08:34:18.694Z,98172.48
2019-03-28T08:36:53.388Z,98169.58
2019-03-28T08:39:26.185Z,98169.34
2019-03-28T08:41:58.817Z,98169.83
2019-03-28T08:44:31.455Z,98170.77
2019-03-28T08:47:06.210Z,98174.90
2019-03-28T08:49:38.413Z,98177.17
2019-03-28T08:52:11.925Z,98172.84
2019-03-28T08:54:44.749Z,98175.02
2019-03-28T08:57:17.309Z,98173.52
2019-03-28T08:59:50.392Z,98173.38
2019-03-28T09:02:23.096Z,98175.16
2019-03-28T09:04:55.742Z,98170.95
2019-03-28T09:07:28.382Z,98172.19
2019-03-28T09:10:00.915Z,98179.56
2019-03-28T09:12:35.118Z,98180.24
2019-03-28T09:15:08.868Z,98170.43
2019-03-28T09:17:41.544Z,98167.34
2019-03-28T09:20:14.459Z,98172.16
2019-03-28T09:22:47.077Z,98174.78
2019-03-28T09:25:19.734Z,98172.16
2019-03-28T09:27:52.588Z,98160.22
2019-03-28T09:30:49.349Z,98158.69
2019-03-28T09:33:19.444Z,98150.88
2019-03-28T09:35:52.211Z,98158.75
2019-03-28T09:38:25.032Z,98155.75
2019-03-28T09:40:57.705Z,98147.73
2019-03-28T09:43:30.262Z,98148.87
2019-03-28T09:46:02.968Z,98151.69
2019-03-28T09:48:35.598Z,98150.17
2019-03-28T09:51:08.311Z,98143.50
2019-03-28T09:53:41.032Z,98147.86
2019-03-28T09:56:13.666Z,98145.34
2019-03-28T09:58:46.382Z,98152.86
2019-03-28T10:01:19.026Z,98147.38
2019-03-28T10:03:51.977Z,98146.56
2019-03-28T10:06:24.607Z,98145.54
2019-03-28T10:08:57.284Z,98148.37
2019-03-28T10:11:29.939Z,98152.51
2019-03-28T10:14:02.601Z,98146.61
2019-03-28T10:16:35.690Z,98139.55
2019-03-28T10:19:08.565Z,98144.98
2019-03-28T10:21:41.209Z,98141.41
2019-03-28T10:24:13.927Z,98136.38
2019-03-28T10:26:46.830Z,98138.47
2019-03-28T10:29:19.732Z,98136.27
2019-03-28T10:31:52.465Z,98135.57
2019-03-28T10:34:25.174Z,98127.47
2019-03-28T10:36:57.854Z,98132.62
2019-03-28T10:39:30.918Z,98133.20
2019-03-28T10:42:04.004Z,98131.42
2019-03-28T10:44:36.688Z,98132.45
2019-03-28T10:47:10.264Z,98128.13
2019-03-28T10:49:42.975Z,98128.54
2019-03-28T10:52:15.590Z,98129.45
2019-03-28T10:54:48.289Z,98134.05
2019-03-28T10:57:29.843Z,98135.29
2019-03-28T10:59:55.405Z,98125.37
2019-03-28T11:02:28.880Z,98131.06
2019-03-28T11:05:01.751Z,98132.30
2019-03-28T11:07:35.849Z,98124.05
2019-03-28T11:10:09.060Z,98127.84
2019-03-28T11:12:41.816Z,98122.56
2019-03-28T11:15:15.831Z,98129.92
2019-03-28T11:17:48.736Z,98126.69
2019-03-28T11:20:21.419Z,98129.58
2019-03-28T11:22:54.032Z,98122.16
2019-03-28T11:25:26.692Z,98118.59
2019-03-28T11:27:59.306Z,98120.54
2019-03-28T11:30:32.566Z,98117.46
2019-03-28T11:33:06.551Z,98112.17
2019-03-28T11:35:39.852Z,98108.44
2019-03-28T11:38:12.620Z,98119.48
2019-03-28T11:40:45.291Z,98105.45
2019-03-28T11:43:17.912Z,98112.00
2019-03-28T11:45:50.834Z,98109.14
2019-03-28T11:48:23.488Z,98116.50
2019-03-28T11:50:56.240Z,98114.60
2019-03-28T11:53:28.909Z,98117.44
2019-03-28T11:56:01.577Z,98112.73
2019-03-28T11:58:34.564Z,98106.33
2019-03-28T12:01:07.669Z,98112.25
2019-03-28T12:03:40.572Z,98107.05
2019-03-28T12:06:13.242Z,98109.84
2019-03-28T12:08:45.858Z,98109.00
2019-03-28T12:11:18.514Z,98109.92
2019-03-28T12:13:51.501Z,98104.97
2019-03-28T12:16:24.161Z,98107.00
2019-03-28T12:18:56.761Z,98102.95
2019-03-28T12:21:29.671Z,98093.59
2019-03-28T12:24:02.600Z,98095.09
2019-03-28T12:26:35.262Z,98089.13
2019-03-28T12:29:07.920Z,98088.09
2019-03-28T12:31:40.586Z,98093.75
2019-03-28T12:34:13.252Z,98089.42
2019-03-28T12:36:46.153Z,98102.25
2019-03-28T12:39:18.839Z,98092.97
2019-03-28T12:41:51.569Z,98085.79
2019-03-28T12:44:24.303Z,98082.22
2019-03-28T12:46:56.955Z,98081.13
2019-03-28T12:49:30.625Z,98080.98
2019-03-28T12:52:03.318Z,98075.09
2019-03-28T12:54:35.992Z,98077.25
2019-03-28T12:57:08.674Z,98079.56
2019-03-28T12:59:41.288Z,98082.20
2019-03-28T13:02:27.160Z,98081.97
2019-03-28T13:04:48.371Z,98081.18
2019-03-28T13:07:21.012Z,98076.34
2019-03-28T13:09:53.794Z,98080.08
2019-03-28T13:12:26.898Z,98072.87
2019-03-28T13:14:59.908Z,98076.95
2019-03-28T13:17:32.602Z,98066.89
2019-03-28T13:20:05.919Z,98070.42
2019-03-28T13:22:38.775Z,98073.29
2019-03-28T13:25:11.612Z,98071.42
2019-03-28T13:27:44.282Z,98071.58
2019-03-28T13:30:18.713Z,98069.89
2019-03-28T13:32:51.476Z,98062.48
2019-03-28T13:35:24.073Z,98064.09
2019-03-28T13:37:56.754Z,98065.03
2019-03-28T13:40:29.355Z,98059.38
2019-03-28T13:43:02.491Z,98058.34
2019-03-28T13:45:35.425Z,98062.03
2019-03-28T13:48:08.190Z,98066.68
2019-03-28T13:50:40.901Z,98062.20
2019-03-28T13:53:13.622Z,98056.96
2019-03-28T13:55:46.447Z,98061.30
2019-03-28T13:58:19.168Z,98055.92
2019-03-28T14:00:54.377Z,98058.57
2019-03-28T14:03:26.567Z,98057.19
2019-03-28T14:05:59.232Z,98058.02
2019-03-28T14:08:31.981Z,98057.50
2019-03-28T14:11:04.668Z,98059.92
2019-03-28T14:13:37.428Z,98056.70
2019-03-28T14:16:11.093Z,98056.32
2019-03-28T14:18:43.847Z,98061.48
2019-03-28T14:21:16.610Z,98056.05
2019-03-28T14:23:49.480Z,98054.33
2019-03-28T14:26:22.169Z,98058.91
2019-03-28T14:28:54.834Z,98052.27
2019-03-28T14:31:27.452Z,98059.73
2019-03-28T14:34:00.559Z,98059.86
2019-03-28T14:36:33.249Z,98056.17
2019-03-28T14:39:08.530Z,98049.67
2019-03-28T14:41:41.291Z,98051.72
2019-03-28T14:44:13.977Z,98057.88
2019-03-28T14:46:46.747Z,98051.81
2019-03-28T14:49:19.422Z,98052.49
2019-03-28T14:51:52.042Z,98055.37
2019-03-28T14:54:24.710Z,98057.41
2019-03-28T14:56:58.476Z,98054.48
2019-03-28T14:59:33.100Z,98052.13
2019-03-28T15:02:06.332Z,98049.87
2019-03-28T15:04:39.315Z,98057.89
2019-03-28T15:07:12.378Z,98057.06
2019-03-28T15:09:45.374Z,98054.03
2019-03-28T15:12:18.361Z,98054.64
2019-03-28T15:14:51.062Z,98047.63
2019-03-28T15:17:23.721Z,98050.58
2019-03-28T15:19:56.424Z,98055.52
2019-03-28T15:22:29.100Z,98050.45
2019-03-28T15:25:01.787Z,98051.69
2019-03-28T15:27:34.550Z,98050.90
2019-03-28T15:30:08.429Z,98054.16
2019-03-28T15:32:41.188Z,98056.08
2019-03-28T15:35:13.929Z,98057.84
2019-03-28T15:37:47.477Z,98054.36
2019-03-28T15:40:20.505Z,98055.08
2019-03-28T15:42:53.290Z,98056.05
2019-03-28T15:45:26.065Z,98063.31
2019-03-28T15:47:58.853Z,98064.45
2019-03-28T15:50:31.615Z,98059.16
2019-03-28T15:53:04.392Z,98054.80
2019-03-28T15:55:37.138Z,98054.30
2019-03-28T15:58:22.678Z,98051.55
2019-03-28T16:00:45.636Z,98057.37
2019-03-28T16:03:18.352Z,98057.73
2019-03-28T16:05:58.013Z,98053.38
2019-03-28T16:08:25.327Z,98055.54
2019-03-28T16:10:58.387Z,98053.05
2019-03-28T16:13:31.179Z,98054.30
2019-03-28T16:16:03.961Z,98055.97
2019-03-28T16:18:36.568Z,98050.96
2019-03-28T16:21:09.278Z,98052.56
2019-03-28T16:23:42.003Z,98054.14
2019-03-28T16:26:14.754Z,98053.23
2019-03-28T16:28:48.243Z,98049.34
2019-03-28T16:31:21.451Z,98061.78
2019-03-28T16:34:06.236Z,98048.30
2019-03-28T16:36:28.516Z,98056.42
2019-03-28T16:39:01.203Z,98051.77
2019-03-28T16:41:35.418Z,98058.59
2019-03-28T16:44:09.188Z,98047.81
2019-03-28T16:46:41.967Z,98050.87
2019-03-28T16:49:14.757Z,98062.33
2019-03-28T16:51:47.474Z,98062.03
2019-03-28T16:54:20.539Z,98057.63
2019-03-28T16:56:53.722Z,98056.78
2019-03-28T16:59:26.865Z,98056.78
2019-03-28T17:01:59.562Z,98058.84
2019-03-28T17:04:33.024Z,98052.51
2019-03-28T17:07:05.830Z,98051.95
2019-03-28T17:09:40.072Z,98050.19
2019-03-28T17:12:12.841Z,98059.42
2019-03-28T17:14:46.757Z,98058.10
2019-03-28T17:17:19.477Z,98059.58
2019-03-28T17:19:52.514Z,98058.94
2019-03-28T17:22:26.310Z,98052.95
2019-03-28T17:24:59.075Z,98052.75
2019-03-28T17:27:31.734Z,98053.78
2019-03-28T17:30:07.189Z,98063.97
2019-03-28T17:32:39.128Z,98066.36
2019-03-28T17:35:13.047Z,98065.95
2019-03-28T17:37:46.245Z,98066.91
2019-03-28T17:40:20.093Z,98067.67
2019-03-28T17:42:52.722Z,98072.64
2019-03-28T17:45:26.382Z,98076.55
2019-03-28T17:47:59.335Z,98078.75
2019-03-28T17:50:32.046Z,98089.34
2019-03-28T17:53:04.814Z,98088.13
2019-03-28T17:55:37.744Z,98094.19
2019-03-28T17:58:10.803Z,98094.82
2019-03-28T18:00:46.436Z,98094.38
2019-03-28T18:03:30.513Z,98095.23
2019-03-28T18:05:58.396Z,98095.98
2019-03-28T18:08:29.714Z,98090.23
2019-03-28T18:11:03.433Z,98098.54
2019-03-28T18:13:36.887Z,98101.02
2019-03-28T18:16:11.766Z,98102.64
2019-03-28T18:18:44.971Z,98106.69
2019-03-28T18:21:18.172Z,98108.39
2019-03-28T18:23:52.206Z,98109.35
2019-03-28T18:26:25.733Z,98115.78
2019-03-28T18:28:58.993Z,98115.49
2019-03-28T18:31:32.617Z,98116.66
2019-03-28T18:34:06.416Z,98118.63
2019-03-28T18:36:40.042Z,98120.75
2019-03-28T18:39:13.774Z,98124.95
2019-03-28T18:41:47.760Z,98123.54
2019-03-28T18:44:21.094Z,98127.70
2019-03-28T18:46:54.721Z,98128.35
2019-03-28T18:49:28.143Z,98128.88
2019-03-28T18:52:01.620Z,98131.99
2019-03-28T18:54:35.940Z,98128.43
2019-03-28T18:57:09.875Z,98135.13
2019-03-28T18:59:43.688Z,98131.41
2019-03-28T19:02:17.277Z,98138.38
2019-03-28T19:04:50.956Z,98137.44
2019-03-28T19:07:24.305Z,98137.44
2019-03-28T19:09:57.306Z,98135.19
2019-03-28T19:12:30.713Z,98140.44
2019-03-28T19:15:04.149Z,98137.34
2019-03-28T19:17:37.761Z,98145.52
2019-03-28T19:20:12.024Z,98143.22
2019-03-28T19:22:45.582Z,98148.37
2019-03-28T19:25:18.778Z,98150.42
2019-03-28T19:27:52.017Z,98149.34
2019-03-28T19:30:36.271Z,98152.08
2019-03-28T19:33:09.458Z,98155.66
2019-03-28T19:35:43.359Z,98147.77
2019-03-28T19:38:17.217Z,98147.19
2019-03-28T19:40:50.832Z,98149.23
2019-03-28T19:43:25.716Z,98147.42
2019-03-28T19:45:59.661Z,98142.89
2019-03-28T19:48:33.125Z,98148.27
2019-03-28T19:51:07.845Z,98149.59
2019-03-28T19:53:41.596Z,98144.69
2019-03-28T19:56:15.064Z,98148.64
2019-03-28T19:58:48.884Z,98152.33
2019-03-28T20:01:22.505Z,98150.08
2019-03-28T20:03:55.981Z,98150.44
2019-03-28T20:06:29.086Z,98149.23
2019-03-28T20:09:15.363Z,98143.00
2019-03-28T20:11:37.362Z,98145.41
2019-03-28T20:14:11.163Z,98144.31
2019-03-28T20:16:44.590Z,98145.84
2019-03-28T20:19:18.129Z,98144.67
2019-03-28T20:21:51.438Z,98152.52
2019-03-28T20:24:25.102Z,98147.88
2019-03-28T20:26:58.341Z,98144.03
2019-03-28T20:29:33.401Z,98145.78
2019-03-28T20:32:08.252Z,98153.45
2019-03-28T20:34:41.911Z,98152.92
2019-03-28T20:37:15.646Z,98153.98
2019-03-28T20:39:49.393Z,98155.77
2019-03-28T20:42:23.053Z,98153.30
2019-03-28T20:44:56.584Z,98157.92
2019-03-28T20:47:30.128Z,98155.16
2019-03-28T20:50:05.162Z,98155.72
2019-03-28T20:52:38.583Z,98150.92
2019-03-28T20:55:12.400Z,98147.80
2019-03-28T20:57:45.989Z,98141.91
2019-03-28T21:00:45.296Z,98142.38
2019-03-28T21:03:18.846Z,98140.20
2019-03-28T21:05:52.183Z,98140.55
2019-03-28T21:08:25.637Z,98141.86
2019-03-28T21:10:59.852Z,98142.31
2019-03-28T21:13:33.655Z,98140.34
2019-03-28T21:16:07.516Z,98140.97
2019-03-28T21:18:41.062Z,98139.33
2019-03-28T21:21:14.438Z,98142.48
2019-03-28T21:23:49.058Z,98138.08
2019-03-28T21:26:22.634Z,98146.86
2019-03-28T21:28:56.075Z,98148.93
2019-03-28T21:31:29.848Z,98151.50
2019-03-28T21:34:03.203Z,98148.09
2019-03-28T21:36:37.053Z,98148.41
2019-03-28T21:39:11.416Z,98146.84
2019-03-28T21:41:45.946Z,98149.02
2019-03-28T21:44:20.207Z,98142.98
2019-03-28T21:46:53.877Z,98142.08
2019-03-28T21:49:27.862Z,98144.94
2019-03-28T21:52:01.067Z,98144.87
2019-03-28T21:54:34.696Z,98141.04
2019-03-28T21:57:08.106Z,98138.05
2019-03-28T21:59:41.831Z,98142.53
2019-03-28T22:02:14.989Z,98145.14
2019-03-28T22:04:48.745Z,98143.84
2019-03-28T22:07:22.025Z,98138.95
2019-03-28T22:09:56.343Z,98142.32
2019-03-28T22:12:29.983Z,98137.47
2019-03-28T22:15:04.045Z,98142.48
2019-03-28T22:17:37.523Z,98141.70
2019-03-28T22:20:11.254Z,98143.20
2019-03-28T22:22:45.291Z,98139.16
2019-03-28T22:25:18.767Z,98143.83
2019-03-28T22:27:53.376Z,98136.16
2019-03-28T22:30:26.801Z,98144.07
2019-03-28T22:33:00.180Z,98142.02
2019-03-28T22:35:33.651Z,98142.55
2019-03-28T22:38:07.332Z,98143.34
2019-03-28T22:40:43.696Z,98142.47
2019-03-28T22:43:16.095Z,98138.22
2019-03-28T22:45:50.122Z,98142.80
2019-03-28T22:48:23.952Z,98136.77
2019-03-28T22:50:57.588Z,98140.28
2019-03-28T22:53:30.930Z,98139.87
2019-03-28T22:56:04.725Z,98138.37
2019-03-28T22:58:37.429Z,98140.44
2019-03-28T23:01:10.939Z,98134.73
2019-03-28T23:03:44.007Z,98136.83
2019-03-28T23:06:16.765Z,98136.41
2019-03-28T23:08:49.589Z,98130.03
2019-03-28T23:11:22.369Z,98129.23
2019-03-28T23:13:55.221Z,98126.05
2019-03-28T23:16:28.762Z,98119.50
2019-03-28T23:19:02.157Z,98115.48
2019-03-28T23:21:35.238Z,98115.66
2019-03-28T23:24:07.929Z,98118.05
2019-03-28T23:26:40.633Z,98119.09
2019-03-28T23:29:13.291Z,98121.85
2019-03-28T23:31:46.773Z,98116.71
2019-03-28T23:34:20.513Z,98123.50
2019-03-28T23:36:53.241Z,98120.30
2019-03-28T23:39:25.996Z,98119.41
2019-03-28T23:41:58.650Z,98124.61
2019-03-28T23:44:31.289Z,98119.27
2019-03-28T23:47:04.160Z,98113.48
2019-03-28T23:49:38.633Z,98108.11
2019-03-28T23:52:12.407Z,98108.47
2019-03-28T23:54:46.165Z,98104.33
2019-03-28T23:57:18.829Z,98102.08
2019-03-28T23:59:51.507Z,98101.13
